Circle City, Arizona
Current Conditions -  °F | °C
As of 12:58 AM on Thursday 27 Nov 2014 (Local Time) from KLUF Reporting Station
Haze Haze  
Wind Chill: 45°   Ceiling: Unl
Heat Index: 47°   Visibility: 5mi
Dew Point: 24°   Wind: 6mph
Humidity: 40%   Direction: 360°N
Pressure: 30.18"   Gusts: NA
Location:  33.8631°N, 112.556°W
Report Text: KLUF 270758Z AUTO 36005KT 5SM HZ CLR 09/M04 A3018 RMK AO2 SLP217 T00851043 $
Loading
Personal Weather Stations






























Interactive Weather Map New forecast layout! Learn more

10-Day Weather Forecast

Advertisements
Track Severe Weather on mobile